Terminal Aerodrome Forecast
Issued by NWS Denver/Boulder, CO

Home | Current Version | Previous Version | Text Only | Print | Product List | Glossary On
Versions: 1 2 3 4 5 6 7 8 9 10 11 12 13 14 15 16 17 18 19 20 21 22 23 24 25 26 27 28 29 30 31 32 33 34 35 36 37 38 39 40 41 42 43 44 45 46 47 48 49 50
000
FTUS45 KBOU 232113 AAB
TAFDEN
TAF AMD
KDEN 232113Z 2321/2424 36020G32KT P6SM SCT070 BKN100 BKN200
      TEMPO 2321/2324 -SHSN BKN060
     FM240000 30012KT P6SM FEW100 BKN200
     FM240400 27010KT P6SM FEW120 SCT200
     FM240900 24010KT P6SM SCT200
     FM241600 31012G20KT P6SM FEW070 SCT100 BKN220
     FM241800 33015G30KT P6SM VCSH SCT070 BKN100 BKN200=

USA.gov is the U.S. government's official web portal to all federal, state and local government web resources and services.